Weather reports worldwide

Advertisment
Soria, Spain (8148): temperature & dewpoint: 19.04.2019 14:00:00 - 25.04.2019 14:00:00 (CEST)Soria, Spain (8148): wind speed: 19.04.2019 14:00:00 - 25.04.2019 14:00:00 (CEST)Soria, Spain (8148): wind direction: 19.04.2019 14:00:00 - 25.04.2019 14:00:00 (CEST)Soria, Spain (8148): visibility: 19.04.2019 14:00:00 - 25.04.2019 14:00:00 (CEST)Soria, Spain (8148): precipitation: 19.04.2019 14:00:00 - 25.04.2019 14:00:00 (CEST)
Date & Time tt [°C] td [°C] ff [km/h] ff [kn] dd vv [km] rr [mm]
25.04.2019 14:00:00 8,1 2,7 26 14 W 18 -
25.04.2019 13:00:00 7,1 2,8 18 10 W 20 0,0
25.04.2019 12:00:00 5,8 2,8 21 11 W 13 0,2
25.04.2019 11:00:00 6,0 3,2 15 8 WSW 20 -
25.04.2019 10:00:00 4,0 2,8 13 7 W 6 0,2
25.04.2019 09:00:00 4,0 2,7 15 8 SW 20 0,0
25.04.2019 08:00:00 3,3 2,4 8 4 WSW 20 -
25.04.2019 07:00:00 3,0 1,8 16 9 W 20 0,2
25.04.2019 06:00:00 4,4 2,6 18 10 W 20 0,0
25.04.2019 05:00:00 5,1 3,4 16 9 W 19 -
25.04.2019 04:00:00 5,6 4,4 18 10 W 20 0,2
25.04.2019 03:00:00 5,5 4,5 21 11 W 6 2,0
25.04.2019 02:00:00 7,8 6,9 18 10 SSW 3,1 -
25.04.2019 01:00:00 7,2 6,3 18 10 SSW 18 0,2
25.04.2019 00:00:00 6,9 6,3 11 6 SSW 7 0,6
24.04.2019 23:00:00 7,1 6,2 11 6 WSW 20 -
24.04.2019 22:00:00 6,6 5,7 13 7 WSW - 2,0
24.04.2019 21:00:00 6,8 4,9 28 15 W 2,5 6,0
24.04.2019 20:00:00 8,3 7,2 21 11 SSW 2,0 -
24.04.2019 19:00:00 9,0 7,6 22 12 SSW 9 2,0
24.04.2019 18:00:00 9,3 7,4 21 11 SSW - 0,8
24.04.2019 17:00:00 10,8 6,5 26 14 SSW 20 -
24.04.2019 16:00:00 9,6 5,4 26 14 SSW 19 0,0
24.04.2019 15:00:00 7,5 5,1 26 14 SSW 13 0,0
24.04.2019 14:00:00 7,0 4,3 24 13 SSW 20 -
24.04.2019 13:00:00 4,5 3,2 24 13 SSW 6 0,6
24.04.2019 12:00:00 3,3 2,0 26 14 SSW 6 0,2
24.04.2019 11:00:00 1,6 1,0 15 8 S 3,8 -
24.04.2019 10:00:00 3,3 1,7 16 9 SSW 7 0,0
24.04.2019 09:00:00 3,0 0,7 18 10 SSW 20 0,0
24.04.2019 08:00:00 2,6 1,4 13 7 SSW 20 -
24.04.2019 07:00:00 2,2 0,9 11 6 WSW 20 0,0
24.04.2019 06:00:00 2,6 0,8 11 6 W 20 0,0
24.04.2019 05:00:00 3,0 1,4 15 8 W 20 -
24.04.2019 04:00:00 3,3 1,5 15 8 W 20 0,0
24.04.2019 03:00:00 3,4 1,9 15 8 W 17 0,0
24.04.2019 02:00:00 3,8 2,2 13 7 WSW 20 -
24.04.2019 01:00:00 3,8 2,6 13 7 W 15 0,0
24.04.2019 00:00:00 3,7 2,4 13 7 W 20 0,0
23.04.2019 23:00:00 3,9 2,6 11 6 W 20 -
23.04.2019 22:00:00 4,0 2,2 11 6 W 19 0,2
23.04.2019 21:00:00 5,2 1,7 15 8 W 18 0,0
23.04.2019 20:00:00 7,6 2,3 18 10 W 20 -
23.04.2019 19:00:00 9,3 3,7 15 8 W 20 0,0
23.04.2019 18:00:00 6,8 4,5 16 9 W 4,9 0,2
23.04.2019 17:00:00 8,6 4,0 18 10 SSW 20 -
23.04.2019 16:00:00 9,3 5,3 11 6 SW 16 0,0
23.04.2019 15:00:00 9,1 5,1 11 6 S 20 0,0
23.04.2019 14:00:00 9,1 6,2 16 9 SSW 18 -
23.04.2019 13:00:00 8,0 6,6 13 7 SSW 15 0,6
23.04.2019 12:00:00 8,5 7,1 11 6 S 13 0,2
23.04.2019 11:00:00 9,7 5,3 15 8 SSW 14 -
23.04.2019 10:00:00 9,6 5,9 13 7 S 19 0,0
23.04.2019 09:00:00 8,1 6,2 8 4 S 16 0,0
23.04.2019 08:00:00 7,3 5,8 2 1 SE 15 -
23.04.2019 07:00:00 7,0 5,5 5 3 SSE 14 0,0
23.04.2019 06:00:00 7,3 5,4 2 1 SSE 16 0,0
23.04.2019 05:00:00 7,7 5,7 4 2 S 16 -
23.04.2019 04:00:00 8,2 6,0 4 2 SW 18 0,0
23.04.2019 03:00:00 8,2 6,2 2 1 S 18 0,0
23.04.2019 02:00:00 8,8 6,2 4 2 SSW 19 -
23.04.2019 01:00:00 9,2 6,3 4 2 SSE 19 0,0
23.04.2019 00:00:00 9,5 6,0 5 3 S 18 0,0
22.04.2019 23:00:00 9,8 6,5 5 3 SSW 20 -
22.04.2019 22:00:00 10,8 6,0 9 5 WSW 17 0,0
22.04.2019 21:00:00 12,1 5,5 8 4 SW 19 0,0
22.04.2019 20:00:00 13,1 5,3 8 4 SSW 19 -
22.04.2019 19:00:00 13,6 5,0 8 4 WSW 20 0,0
22.04.2019 18:00:00 13,2 4,1 9 5 SSW 20 0,0
22.04.2019 17:00:00 13,8 4,9 11 6 S 20 -
22.04.2019 16:00:00 13,4 4,8 9 5 SSE 20 0,0
22.04.2019 15:00:00 12,6 4,8 11 6 SSE 20 0,0
22.04.2019 14:00:00 12,8 5,0 9 5 S 20 -
22.04.2019 13:00:00 12,3 4,5 8 4 SSE 20 0,0
22.04.2019 12:00:00 12,4 3,9 11 6 SSE 20 0,0
22.04.2019 11:00:00 11,9 4,1 5 3 SE 20 -
22.04.2019 10:00:00 9,9 5,1 4 2 N 20 0,0
22.04.2019 09:00:00 6,5 5,4 4 2 NNW 17 0,0
22.04.2019 08:00:00 4,6 3,3 0 0 N 15 -
22.04.2019 07:00:00 5,3 3,6 2 1 NNW 16 0,0
22.04.2019 06:00:00 6,1 4,1 2 1 N 19 0,0
22.04.2019 05:00:00 6,2 4,5 2 1 NNW 20 -
22.04.2019 04:00:00 6,2 4,7 2 1 E 16 0,0
22.04.2019 03:00:00 6,2 4,8 4 2 N 15 0,0
22.04.2019 02:00:00 6,4 4,9 8 4 NNE 16 -
22.04.2019 01:00:00 6,6 5,2 4 2 NNE 12 0,2
22.04.2019 00:00:00 6,8 5,1 4 2 ENE 10 0,2
21.04.2019 23:00:00 7,0 5,0 5 3 ENE 7 -
21.04.2019 22:00:00 7,6 4,2 9 5 ENE 12 0,0
21.04.2019 21:00:00 8,0 3,1 5 3 ENE 20 0,0
21.04.2019 20:00:00 8,2 2,8 9 5 ENE 20 -
21.04.2019 19:00:00 8,5 3,1 11 6 ENE 20 0,0
21.04.2019 18:00:00 8,8 3,0 9 5 ENE 20 0,0
21.04.2019 17:00:00 8,5 3,9 13 7 NE 20 -
21.04.2019 16:00:00 8,3 3,9 8 4 ENE 20 0,0
21.04.2019 15:00:00 8,0 3,8 13 7 E 20 0,0
21.04.2019 14:00:00 8,5 3,5 15 8 ENE 20 -
21.04.2019 13:00:00 8,3 5,0 11 6 ENE 11 0,0
21.04.2019 12:00:00 8,0 2,9 13 7 ENE 20 0,0
21.04.2019 11:00:00 6,8 3,4 8 4 NE 17 -
21.04.2019 10:00:00 6,3 3,8 9 5 NE 20 0,0
21.04.2019 09:00:00 5,9 4,2 11 6 ENE 20 0,0
21.04.2019 08:00:00 5,7 4,0 8 4 ENE 20 -
21.04.2019 07:00:00 6,0 3,8 8 4 E 13 0,0
21.04.2019 06:00:00 5,8 3,3 9 5 E 20 0,0
21.04.2019 05:00:00 6,1 3,4 9 5 SE 20 -
21.04.2019 04:00:00 6,6 4,3 5 3 ESE 20 0,0
21.04.2019 03:00:00 6,9 3,7 5 3 ESE 20 0,0
21.04.2019 02:00:00 7,1 3,9 8 4 SE 20 -
21.04.2019 01:00:00 7,7 3,7 8 4 SE 20 0,0
21.04.2019 00:00:00 8,0 3,5 8 4 SE 20 0,0
20.04.2019 23:00:00 8,4 3,2 13 7 SSE 20 -
20.04.2019 22:00:00 10,8 1,9 15 8 SE 20 0,0
20.04.2019 21:00:00 12,6 1,3 8 4 E 20 0,0
20.04.2019 20:00:00 14,7 0,5 11 6 E 20 -
20.04.2019 19:00:00 16,1 -0,6 13 7 E 20 0,0
20.04.2019 18:00:00 17,4 1,8 15 8 E 20 0,0
20.04.2019 17:00:00 17,0 2,6 13 7 E 20 -
20.04.2019 16:00:00 15,6 3,4 15 8 E 20 0,0
20.04.2019 15:00:00 16,3 3,7 13 7 E 20 0,0
20.04.2019 14:00:00 17,2 3,8 16 9 E 20 -
20.04.2019 13:00:00 16,9 2,8 13 7 E 20 0,0
20.04.2019 12:00:00 15,3 2,1 15 8 ESE 20 0,0
20.04.2019 11:00:00 14,7 0,5 15 8 E 20 -
20.04.2019 10:00:00 11,5 2,8 13 7 NE 20 0,0
20.04.2019 09:00:00 9,2 1,6 9 5 ENE 20 0,0
20.04.2019 08:00:00 8,2 2,0 8 4 NE 20 -
20.04.2019 07:00:00 7,4 1,9 4 2 NNW 20 0,0
20.04.2019 06:00:00 7,9 2,4 9 5 NNE 20 0,0
20.04.2019 05:00:00 7,7 3,2 9 5 NNE 20 -
20.04.2019 04:00:00 7,9 3,9 5 3 E 20 0,0
20.04.2019 03:00:00 7,9 4,1 4 2 E 20 0,0
20.04.2019 02:00:00 7,9 4,7 2 1 NNW 20 -
20.04.2019 01:00:00 8,7 4,3 4 2 ESE 20 0,0
20.04.2019 00:00:00 9,6 5,4 9 5 ENE 20 0,0
19.04.2019 23:00:00 10,1 5,5 9 5 E 20 -
19.04.2019 22:00:00 10,4 5,6 13 7 E 20 0,0
19.04.2019 21:00:00 10,4 6,3 15 8 E 20 0,0
19.04.2019 20:00:00 11,1 6,4 16 9 ENE 20 -
19.04.2019 19:00:00 11,8 6,3 21 11 ENE 20 0,0
19.04.2019 18:00:00 12,1 6,2 24 13 E 20 0,0
19.04.2019 17:00:00 12,1 6,6 18 10 E 20 -
19.04.2019 16:00:00 11,6 6,7 21 11 E 20 0,0
19.04.2019 15:00:00 10,6 6,9 16 9 ENE 20 0,0
19.04.2019 14:00:00 10,3 6,8 16 9 E 20 -

tt = temperature
td = dewpoint
ff = wind speed
dd = wind direction
vv = visibility
rr = precipitation

Next stations